sensor_id;sensor_type;location;lat;lon;timestamp;P1;durP1;ratioP1;P2;durP2;ratioP2
62030;SDS011;62035;52.094;5.112;2023-03-13T00:01:00;24.73;;;4.05;;
62030;SDS011;62035;52.094;5.112;2023-03-13T00:03:36;28.80;;;5.10;;
62030;SDS011;62035;52.094;5.112;2023-03-13T00:06:03;20.48;;;5.25;;
62030;SDS011;62035;52.094;5.112;2023-03-13T00:08:32;21.73;;;3.90;;
62030;SDS011;62035;52.094;5.112;2023-03-13T00:11:01;32.55;;;4.55;;
62030;SDS011;62035;52.094;5.112;2023-03-13T00:13:29;22.98;;;4.38;;
62030;SDS011;62035;52.094;5.112;2023-03-13T00:16:01;22.63;;;3.95;;
62030;SDS011;62035;52.094;5.112;2023-03-13T00:18:31;18.92;;;4.30;;
62030;SDS011;62035;52.094;5.112;2023-03-13T00:21:00;21.90;;;4.22;;
62030;SDS011;62035;52.094;5.112;2023-03-13T00:23:30;21.27;;;4.18;;
62030;SDS011;62035;52.094;5.112;2023-03-13T00:26:00;24.63;;;3.92;;
62030;SDS011;62035;52.094;5.112;2023-03-13T00:28:32;23.00;;;3.70;;
62030;SDS011;62035;52.094;5.112;2023-03-13T00:31:03;20.70;;;4.20;;
62030;SDS011;62035;52.094;5.112;2023-03-13T00:33:33;23.20;;;4.35;;
62030;SDS011;62035;52.094;5.112;2023-03-13T00:36:04;18.65;;;4.63;;
62030;SDS011;62035;52.094;5.112;2023-03-13T00:38:34;16.85;;;4.15;;
62030;SDS011;62035;52.094;5.112;2023-03-13T00:41:03;19.27;;;3.53;;
62030;SDS011;62035;52.094;5.112;2023-03-13T00:43:34;19.25;;;3.30;;
62030;SDS011;62035;52.094;5.112;2023-03-13T00:46:03;23.00;;;4.47;;
62030;SDS011;62035;52.094;5.112;2023-03-13T00:48:31;17.63;;;4.18;;
62030;SDS011;62035;52.094;5.112;2023-03-13T00:50:59;21.35;;;3.92;;
62030;SDS011;62035;52.094;5.112;2023-03-13T00:53:28;21.50;;;4.50;;
62030;SDS011;62035;52.094;5.112;2023-03-13T00:55:56;22.52;;;4.63;;
62030;SDS011;62035;52.094;5.112;2023-03-13T00:58:28;26.38;;;4.82;;
62030;SDS011;62035;52.094;5.112;2023-03-13T01:01:06;27.45;;;4.70;;
62030;SDS011;62035;52.094;5.112;2023-03-13T01:03:36;23.65;;;4.45;;
62030;SDS011;62035;52.094;5.112;2023-03-13T01:06:07;26.67;;;5.35;;
62030;SDS011;62035;52.094;5.112;2023-03-13T01:08:37;22.25;;;4.55;;
62030;SDS011;62035;52.094;5.112;2023-03-13T01:11:06;18.83;;;4.82;;
62030;SDS011;62035;52.094;5.112;2023-03-13T01:13:37;18.83;;;4.18;;
62030;SDS011;62035;52.094;5.112;2023-03-13T01:16:07;22.65;;;4.63;;
62030;SDS011;62035;52.094;5.112;2023-03-13T01:18:38;16.05;;;4.07;;
62030;SDS011;62035;52.094;5.112;2023-03-13T01:21:08;21.17;;;4.13;;
62030;SDS011;62035;52.094;5.112;2023-03-13T01:23:37;22.25;;;4.75;;
62030;SDS011;62035;52.094;5.112;2023-03-13T01:26:05;21.10;;;4.57;;
62030;SDS011;62035;52.094;5.112;2023-03-13T01:28:35;18.42;;;4.78;;
62030;SDS011;62035;52.094;5.112;2023-03-13T01:31:10;9.10;;;4.03;;
62030;SDS011;62035;52.094;5.112;2023-03-13T01:33:39;16.65;;;4.50;;
62030;SDS011;62035;52.094;5.112;2023-03-13T01:36:07;19.73;;;4.43;;
62030;SDS011;62035;52.094;5.112;2023-03-13T01:38:36;15.13;;;4.20;;
62030;SDS011;62035;52.094;5.112;2023-03-13T01:41:03;16.00;;;4.30;;
62030;SDS011;62035;52.094;5.112;2023-03-13T01:43:32;17.38;;;4.35;;
62030;SDS011;62035;52.094;5.112;2023-03-13T01:46:04;14.68;;;5.03;;
62030;SDS011;62035;52.094;5.112;2023-03-13T01:48:42;15.73;;;4.90;;
62030;SDS011;62035;52.094;5.112;2023-03-13T01:51:17;17.10;;;5.78;;
62030;SDS011;62035;52.094;5.112;2023-03-13T01:53:50;15.18;;;4.55;;
62030;SDS011;62035;52.094;5.112;2023-03-13T01:56:29;13.93;;;5.43;;
62030;SDS011;62035;52.094;5.112;2023-03-13T01:59:06;13.70;;;4.90;;
62030;SDS011;62035;52.094;5.112;2023-03-13T02:01:41;17.00;;;5.80;;
62030;SDS011;62035;52.094;5.112;2023-03-13T02:04:13;17.52;;;6.63;;
62030;SDS011;62035;52.094;5.112;2023-03-13T02:06:45;12.40;;;5.78;;
62030;SDS011;62035;52.094;5.112;2023-03-13T02:09:20;15.07;;;5.95;;
62030;SDS011;62035;52.094;5.112;2023-03-13T02:14:27;12.63;;;6.18;;
62030;SDS011;62035;52.094;5.112;2023-03-13T02:17:01;16.90;;;7.30;;
62030;SDS011;62035;52.094;5.112;2023-03-13T02:19:32;15.57;;;7.50;;
62030;SDS011;62035;52.094;5.112;2023-03-13T02:22:09;16.55;;;6.97;;
62030;SDS011;62035;52.094;5.112;2023-03-13T02:24:50;15.23;;;7.23;;
62030;SDS011;62035;52.094;5.112;2023-03-13T02:27:30;15.00;;;7.40;;
62030;SDS011;62035;52.094;5.112;2023-03-13T02:29:57;17.70;;;8.80;;
62030;SDS011;62035;52.094;5.112;2023-03-13T02:32:26;16.55;;;8.90;;
62030;SDS011;62035;52.094;5.112;2023-03-13T02:34:57;13.60;;;8.88;;
62030;SDS011;62035;52.094;5.112;2023-03-13T02:37:32;14.77;;;8.48;;
62030;SDS011;62035;52.094;5.112;2023-03-13T02:40:00;17.38;;;9.25;;
62030;SDS011;62035;52.094;5.112;2023-03-13T02:42:36;16.85;;;8.98;;
62030;SDS011;62035;52.094;5.112;2023-03-13T02:45:08;16.92;;;8.90;;
62030;SDS011;62035;52.094;5.112;2023-03-13T02:47:39;15.82;;;8.95;;
62030;SDS011;62035;52.094;5.112;2023-03-13T02:50:07;14.93;;;10.07;;
62030;SDS011;62035;52.094;5.112;2023-03-13T02:52:36;18.25;;;9.35;;
62030;SDS011;62035;52.094;5.112;2023-03-13T02:55:10;19.85;;;9.88;;
62030;SDS011;62035;52.094;5.112;2023-03-13T02:57:45;16.15;;;8.32;;
62030;SDS011;62035;52.094;5.112;2023-03-13T03:00:13;19.90;;;8.65;;
62030;SDS011;62035;52.094;5.112;2023-03-13T03:02:42;12.70;;;8.18;;
62030;SDS011;62035;52.094;5.112;2023-03-13T03:05:11;13.98;;;7.85;;
62030;SDS011;62035;52.094;5.112;2023-03-13T03:07:40;16.23;;;7.68;;
62030;SDS011;62035;52.094;5.112;2023-03-13T03:10:08;14.60;;;8.10;;
62030;SDS011;62035;52.094;5.112;2023-03-13T03:12:37;14.43;;;7.20;;
62030;SDS011;62035;52.094;5.112;2023-03-13T03:15:07;13.98;;;6.80;;
62030;SDS011;62035;52.094;5.112;2023-03-13T03:17:35;15.75;;;6.55;;
62030;SDS011;62035;52.094;5.112;2023-03-13T03:20:03;17.48;;;7.13;;
62030;SDS011;62035;52.094;5.112;2023-03-13T03:22:36;12.50;;;6.82;;
62030;SDS011;62035;52.094;5.112;2023-03-13T03:25:05;12.93;;;5.82;;
62030;SDS011;62035;52.094;5.112;2023-03-13T03:27:35;13.25;;;5.72;;
62030;SDS011;62035;52.094;5.112;2023-03-13T03:30:03;9.55;;;5.63;;
62030;SDS011;62035;52.094;5.112;2023-03-13T03:32:34;12.77;;;5.68;;
62030;SDS011;62035;52.094;5.112;2023-03-13T03:35:02;11.05;;;5.68;;
62030;SDS011;62035;52.094;5.112;2023-03-13T03:37:30;12.88;;;5.55;;
62030;SDS011;62035;52.094;5.112;2023-03-13T03:39:57;13.32;;;5.63;;
62030;SDS011;62035;52.094;5.112;2023-03-13T03:42:25;12.48;;;4.90;;
62030;SDS011;62035;52.094;5.112;2023-03-13T03:44:53;12.35;;;4.82;;
62030;SDS011;62035;52.094;5.112;2023-03-13T03:47:21;13.10;;;4.82;;
62030;SDS011;62035;52.094;5.112;2023-03-13T03:49:49;12.68;;;4.80;;
62030;SDS011;62035;52.094;5.112;2023-03-13T03:52:17;9.73;;;4.45;;
62030;SDS011;62035;52.094;5.112;2023-03-13T03:54:44;11.88;;;4.22;;
62030;SDS011;62035;52.094;5.112;2023-03-13T03:57:12;6.45;;;4.35;;
62030;SDS011;62035;52.094;5.112;2023-03-13T03:59:39;9.27;;;4.20;;
62030;SDS011;62035;52.094;5.112;2023-03-13T04:02:07;9.20;;;4.75;;
62030;SDS011;62035;52.094;5.112;2023-03-13T04:04:36;12.32;;;4.53;;
62030;SDS011;62035;52.094;5.112;2023-03-13T04:07:04;8.35;;;3.92;;
62030;SDS011;62035;52.094;5.112;2023-03-13T04:09:31;11.20;;;4.47;;
62030;SDS011;62035;52.094;5.112;2023-03-13T04:11:59;14.95;;;6.13;;
62030;SDS011;62035;52.094;5.112;2023-03-13T04:14:26;9.02;;;4.10;;
62030;SDS011;62035;52.094;5.112;2023-03-13T04:16:54;7.10;;;3.92;;
62030;SDS011;62035;52.094;5.112;2023-03-13T04:19:22;8.30;;;4.43;;
62030;SDS011;62035;52.094;5.112;2023-03-13T04:21:51;12.43;;;4.82;;
62030;SDS011;62035;52.094;5.112;2023-03-13T04:24:19;8.23;;;4.32;;
62030;SDS011;62035;52.094;5.112;2023-03-13T04:26:47;9.50;;;4.20;;
62030;SDS011;62035;52.094;5.112;2023-03-13T04:29:14;13.50;;;4.65;;
62030;SDS011;62035;52.094;5.112;2023-03-13T04:31:42;8.95;;;4.53;;
62030;SDS011;62035;52.094;5.112;2023-03-13T04:34:09;11.88;;;4.97;;
62030;SDS011;62035;52.094;5.112;2023-03-13T04:36:37;10.38;;;4.90;;
62030;SDS011;62035;52.094;5.112;2023-03-13T04:39:06;8.57;;;4.55;;
62030;SDS011;62035;52.094;5.112;2023-03-13T04:41:33;10.18;;;4.82;;
62030;SDS011;62035;52.094;5.112;2023-03-13T04:44:01;8.90;;;4.63;;
62030;SDS011;62035;52.094;5.112;2023-03-13T04:46:29;9.30;;;4.72;;
62030;SDS011;62035;52.094;5.112;2023-03-13T04:48:56;7.80;;;4.30;;
62030;SDS011;62035;52.094;5.112;2023-03-13T04:51:24;9.73;;;4.35;;
62030;SDS011;62035;52.094;5.112;2023-03-13T04:53:52;10.02;;;4.68;;
62030;SDS011;62035;52.094;5.112;2023-03-13T04:56:22;12.02;;;4.50;;
62030;SDS011;62035;52.094;5.112;2023-03-13T04:58:52;9.80;;;4.15;;
62030;SDS011;62035;52.094;5.112;2023-03-13T05:01:20;10.35;;;4.63;;
62030;SDS011;62035;52.094;5.112;2023-03-13T05:03:47;9.82;;;4.00;;
62030;SDS011;62035;52.094;5.112;2023-03-13T05:06:15;8.93;;;4.32;;
62030;SDS011;62035;52.094;5.112;2023-03-13T05:08:42;7.13;;;3.63;;
62030;SDS011;62035;52.094;5.112;2023-03-13T05:11:10;10.80;;;4.10;;
62030;SDS011;62035;52.094;5.112;2023-03-13T05:13:39;10.82;;;3.85;;
62030;SDS011;62035;52.094;5.112;2023-03-13T05:16:07;7.78;;;3.58;;
62030;SDS011;62035;52.094;5.112;2023-03-13T05:18:34;9.40;;;3.55;;
62030;SDS011;62035;52.094;5.112;2023-03-13T05:21:04;9.38;;;4.15;;
62030;SDS011;62035;52.094;5.112;2023-03-13T05:23:32;7.78;;;3.63;;
62030;SDS011;62035;52.094;5.112;2023-03-13T05:26:00;7.32;;;3.00;;
62030;SDS011;62035;52.094;5.112;2023-03-13T05:28:27;6.63;;;3.45;;
62030;SDS011;62035;52.094;5.112;2023-03-13T05:30:56;5.95;;;2.95;;
62030;SDS011;62035;52.094;5.112;2023-03-13T05:33:24;10.18;;;3.10;;
62030;SDS011;62035;52.094;5.112;2023-03-13T05:35:52;6.40;;;3.25;;
62030;SDS011;62035;52.094;5.112;2023-03-13T05:38:19;10.82;;;2.95;;
62030;SDS011;62035;52.094;5.112;2023-03-13T05:40:47;9.73;;;3.05;;
62030;SDS011;62035;52.094;5.112;2023-03-13T05:43:14;8.98;;;3.30;;
62030;SDS011;62035;52.094;5.112;2023-03-13T05:45:42;13.07;;;2.80;;
62030;SDS011;62035;52.094;5.112;2023-03-13T05:48:11;8.15;;;2.72;;
62030;SDS011;62035;52.094;5.112;2023-03-13T05:50:38;12.18;;;3.70;;
62030;SDS011;62035;52.094;5.112;2023-03-13T05:53:06;13.30;;;2.97;;
62030;SDS011;62035;52.094;5.112;2023-03-13T05:55:34;6.90;;;2.55;;
62030;SDS011;62035;52.094;5.112;2023-03-13T05:58:01;9.50;;;2.97;;
62030;SDS011;62035;52.094;5.112;2023-03-13T06:00:29;6.43;;;2.53;;
62030;SDS011;62035;52.094;5.112;2023-03-13T06:02:57;11.13;;;2.97;;
62030;SDS011;62035;52.094;5.112;2023-03-13T06:05:26;9.30;;;2.92;;
62030;SDS011;62035;52.094;5.112;2023-03-13T06:07:53;11.23;;;3.03;;
62030;SDS011;62035;52.094;5.112;2023-03-13T06:10:21;10.13;;;2.58;;
62030;SDS011;62035;52.094;5.112;2023-03-13T06:12:51;8.68;;;2.65;;
62030;SDS011;62035;52.094;5.112;2023-03-13T06:15:20;10.75;;;3.20;;
62030;SDS011;62035;52.094;5.112;2023-03-13T06:17:48;7.88;;;3.00;;
62030;SDS011;62035;52.094;5.112;2023-03-13T06:20:16;16.90;;;3.10;;
62030;SDS011;62035;52.094;5.112;2023-03-13T06:22:45;8.05;;;2.95;;
62030;SDS011;62035;52.094;5.112;2023-03-13T06:25:12;11.40;;;2.55;;
62030;SDS011;62035;52.094;5.112;2023-03-13T06:27:40;6.97;;;2.42;;
62030;SDS011;62035;52.094;5.112;2023-03-13T06:30:09;7.15;;;2.70;;
62030;SDS011;62035;52.094;5.112;2023-03-13T06:32:38;10.80;;;3.22;;
62030;SDS011;62035;52.094;5.112;2023-03-13T06:35:05;7.60;;;2.40;;
62030;SDS011;62035;52.094;5.112;2023-03-13T06:37:33;11.55;;;2.88;;
62030;SDS011;62035;52.094;5.112;2023-03-13T06:40:03;7.82;;;2.75;;
62030;SDS011;62035;52.094;5.112;2023-03-13T06:42:32;15.00;;;3.07;;
62030;SDS011;62035;52.094;5.112;2023-03-13T06:44:59;8.63;;;3.35;;
62030;SDS011;62035;52.094;5.112;2023-03-13T06:47:29;10.05;;;2.90;;
62030;SDS011;62035;52.094;5.112;2023-03-13T06:49:57;8.13;;;2.90;;
62030;SDS011;62035;52.094;5.112;2023-03-13T06:52:25;6.55;;;2.67;;
62030;SDS011;62035;52.094;5.112;2023-03-13T06:54:52;9.55;;;2.97;;
62030;SDS011;62035;52.094;5.112;2023-03-13T06:57:21;13.05;;;2.85;;
62030;SDS011;62035;52.094;5.112;2023-03-13T06:59:49;8.85;;;2.70;;
62030;SDS011;62035;52.094;5.112;2023-03-13T07:02:16;7.93;;;2.70;;
62030;SDS011;62035;52.094;5.112;2023-03-13T07:04:44;10.50;;;2.92;;
62030;SDS011;62035;52.094;5.112;2023-03-13T07:07:12;8.40;;;3.33;;
62030;SDS011;62035;52.094;5.112;2023-03-13T07:09:40;7.32;;;2.78;;
62030;SDS011;62035;52.094;5.112;2023-03-13T07:12:08;11.00;;;3.20;;
62030;SDS011;62035;52.094;5.112;2023-03-13T07:14:37;9.48;;;3.22;;
62030;SDS011;62035;52.094;5.112;2023-03-13T07:17:05;10.63;;;3.35;;
62030;SDS011;62035;52.094;5.112;2023-03-13T07:19:32;12.45;;;3.25;;
62030;SDS011;62035;52.094;5.112;2023-03-13T07:22:00;11.25;;;3.10;;
62030;SDS011;62035;52.094;5.112;2023-03-13T07:24:27;8.40;;;3.10;;
62030;SDS011;62035;52.094;5.112;2023-03-13T07:26:56;10.68;;;4.10;;
62030;SDS011;62035;52.094;5.112;2023-03-13T07:29:23;11.23;;;3.38;;
62030;SDS011;62035;52.094;5.112;2023-03-13T07:31:52;10.32;;;3.83;;
62030;SDS011;62035;52.094;5.112;2023-03-13T07:34:20;12.45;;;3.80;;
62030;SDS011;62035;52.094;5.112;2023-03-13T07:36:48;13.00;;;3.97;;
62030;SDS011;62035;52.094;5.112;2023-03-13T07:39:15;8.80;;;3.40;;
62030;SDS011;62035;52.094;5.112;2023-03-13T07:41:43;12.85;;;4.22;;
62030;SDS011;62035;52.094;5.112;2023-03-13T07:44:11;14.48;;;3.67;;
62030;SDS011;62035;52.094;5.112;2023-03-13T07:46:38;14.50;;;3.42;;
62030;SDS011;62035;52.094;5.112;2023-03-13T07:49:07;11.90;;;3.90;;
62030;SDS011;62035;52.094;5.112;2023-03-13T07:51:35;9.23;;;3.65;;
62030;SDS011;62035;52.094;5.112;2023-03-13T07:54:02;17.27;;;3.85;;
62030;SDS011;62035;52.094;5.112;2023-03-13T07:56:30;14.65;;;4.07;;
62030;SDS011;62035;52.094;5.112;2023-03-13T07:58:58;12.45;;;3.60;;
62030;SDS011;62035;52.094;5.112;2023-03-13T08:01:26;10.32;;;3.10;;
62030;SDS011;62035;52.094;5.112;2023-03-13T08:03:53;7.75;;;2.90;;
62030;SDS011;62035;52.094;5.112;2023-03-13T08:06:23;9.07;;;3.25;;
62030;SDS011;62035;52.094;5.112;2023-03-13T08:08:55;11.50;;;3.28;;
62030;SDS011;62035;52.094;5.112;2023-03-13T08:11:24;7.55;;;2.90;;
62030;SDS011;62035;52.094;5.112;2023-03-13T08:13:55;9.30;;;2.92;;
62030;SDS011;62035;52.094;5.112;2023-03-13T08:16:24;6.57;;;2.55;;
62030;SDS011;62035;52.094;5.112;2023-03-13T08:18:55;12.15;;;2.83;;
62030;SDS011;62035;52.094;5.112;2023-03-13T08:21:26;10.13;;;3.20;;
62030;SDS011;62035;52.094;5.112;2023-03-13T08:23:56;10.85;;;3.15;;
62030;SDS011;62035;52.094;5.112;2023-03-13T08:26:27;12.15;;;3.42;;
62030;SDS011;62035;52.094;5.112;2023-03-13T08:28:57;11.05;;;2.88;;
62030;SDS011;62035;52.094;5.112;2023-03-13T08:31:27;9.35;;;2.95;;
62030;SDS011;62035;52.094;5.112;2023-03-13T08:33:58;7.82;;;3.05;;
62030;SDS011;62035;52.094;5.112;2023-03-13T08:36:28;10.13;;;3.33;;
62030;SDS011;62035;52.094;5.112;2023-03-13T08:38:59;7.82;;;2.90;;
62030;SDS011;62035;52.094;5.112;2023-03-13T08:41:31;8.40;;;2.60;;
62030;SDS011;62035;52.094;5.112;2023-03-13T08:44:01;10.77;;;3.17;;
62030;SDS011;62035;52.094;5.112;2023-03-13T08:46:31;9.57;;;3.15;;
62030;SDS011;62035;52.094;5.112;2023-03-13T08:49:01;8.85;;;2.70;;
62030;SDS011;62035;52.094;5.112;2023-03-13T08:51:32;8.00;;;2.33;;
62030;SDS011;62035;52.094;5.112;2023-03-13T08:54:01;8.93;;;2.53;;
62030;SDS011;62035;52.094;5.112;2023-03-13T08:56:30;8.45;;;2.85;;
62030;SDS011;62035;52.094;5.112;2023-03-13T08:59:00;7.97;;;2.63;;
62030;SDS011;62035;52.094;5.112;2023-03-13T09:01:31;8.52;;;3.22;;
62030;SDS011;62035;52.094;5.112;2023-03-13T09:04:01;15.48;;;2.70;;
62030;SDS011;62035;52.094;5.112;2023-03-13T09:06:30;8.77;;;2.42;;
62030;SDS011;62035;52.094;5.112;2023-03-13T09:08:59;10.25;;;2.85;;
62030;SDS011;62035;52.094;5.112;2023-03-13T09:11:28;8.00;;;2.72;;
62030;SDS011;62035;52.094;5.112;2023-03-13T09:13:55;10.68;;;2.83;;
62030;SDS011;62035;52.094;5.112;2023-03-13T09:16:25;7.63;;;2.53;;
62030;SDS011;62035;52.094;5.112;2023-03-13T09:18:55;9.38;;;2.30;;
62030;SDS011;62035;52.094;5.112;2023-03-13T09:21:24;11.85;;;2.28;;
62030;SDS011;62035;52.094;5.112;2023-03-13T09:23:56;7.97;;;2.30;;
62030;SDS011;62035;52.094;5.112;2023-03-13T09:26:24;9.75;;;2.30;;
62030;SDS011;62035;52.094;5.112;2023-03-13T09:28:53;7.20;;;2.28;;
62030;SDS011;62035;52.094;5.112;2023-03-13T09:31:22;8.20;;;2.20;;
62030;SDS011;62035;52.094;5.112;2023-03-13T09:33:52;11.40;;;2.33;;
62030;SDS011;62035;52.094;5.112;2023-03-13T09:36:20;7.75;;;2.30;;
62030;SDS011;62035;52.094;5.112;2023-03-13T09:38:49;13.18;;;2.25;;
62030;SDS011;62035;52.094;5.112;2023-03-13T09:41:23;6.43;;;2.17;;
62030;SDS011;62035;52.094;5.112;2023-03-13T09:43:59;12.77;;;2.08;;
62030;SDS011;62035;52.094;5.112;2023-03-13T09:46:37;7.22;;;1.98;;
62030;SDS011;62035;52.094;5.112;2023-03-13T09:49:14;7.50;;;1.80;;
62030;SDS011;62035;52.094;5.112;2023-03-13T09:51:58;9.75;;;2.00;;
62030;SDS011;62035;52.094;5.112;2023-03-13T09:54:38;9.07;;;2.15;;
62030;SDS011;62035;52.094;5.112;2023-03-13T09:57:16;9.20;;;1.83;;
62030;SDS011;62035;52.094;5.112;2023-03-13T09:59:52;9.48;;;1.80;;
62030;SDS011;62035;52.094;5.112;2023-03-13T10:02:27;5.85;;;1.63;;
62030;SDS011;62035;52.094;5.112;2023-03-13T10:05:09;7.45;;;1.80;;
62030;SDS011;62035;52.094;5.112;2023-03-13T10:07:45;6.65;;;1.50;;
62030;SDS011;62035;52.094;5.112;2023-03-13T10:10:13;7.45;;;1.90;;
62030;SDS011;62035;52.094;5.112;2023-03-13T10:12:45;5.90;;;2.08;;
62030;SDS011;62035;52.094;5.112;2023-03-13T10:15:22;3.03;;;1.23;;
62030;SDS011;62035;52.094;5.112;2023-03-13T10:18:03;4.68;;;1.50;;
62030;SDS011;62035;52.094;5.112;2023-03-13T10:20:46;5.93;;;1.40;;
62030;SDS011;62035;52.094;5.112;2023-03-13T10:23:21;5.20;;;1.42;;
62030;SDS011;62035;52.094;5.112;2023-03-13T10:26:01;5.93;;;1.60;;
62030;SDS011;62035;52.094;5.112;2023-03-13T10:28:30;7.65;;;1.60;;
62030;SDS011;62035;52.094;5.112;2023-03-13T10:31:00;4.55;;;1.83;;
62030;SDS011;62035;52.094;5.112;2023-03-13T10:33:35;4.25;;;1.42;;
62030;SDS011;62035;52.094;5.112;2023-03-13T10:36:05;4.00;;;1.52;;
62030;SDS011;62035;52.094;5.112;2023-03-13T10:41:22;4.00;;;1.70;;
62030;SDS011;62035;52.094;5.112;2023-03-13T10:43:59;8.30;;;1.67;;
62030;SDS011;62035;52.094;5.112;2023-03-13T10:46:31;8.85;;;1.58;;
62030;SDS011;62035;52.094;5.112;2023-03-13T10:49:02;3.65;;;1.50;;
62030;SDS011;62035;52.094;5.112;2023-03-13T10:51:39;5.93;;;2.08;;
62030;SDS011;62035;52.094;5.112;2023-03-13T10:54:15;7.20;;;1.50;;
62030;SDS011;62035;52.094;5.112;2023-03-13T10:56:50;6.75;;;1.67;;
62030;SDS011;62035;52.094;5.112;2023-03-13T10:59:38;4.82;;;1.60;;
62030;SDS011;62035;52.094;5.112;2023-03-13T11:02:19;10.68;;;2.00;;
62030;SDS011;62035;52.094;5.112;2023-03-13T11:04:52;11.20;;;3.08;;
62030;SDS011;62035;52.094;5.112;2023-03-13T11:07:20;7.47;;;1.80;;
62030;SDS011;62035;52.094;5.112;2023-03-13T11:09:58;6.55;;;1.73;;
62030;SDS011;62035;52.094;5.112;2023-03-13T11:12:32;8.30;;;1.92;;
62030;SDS011;62035;52.094;5.112;2023-03-13T11:15:03;8.60;;;1.80;;
62030;SDS011;62035;52.094;5.112;2023-03-13T11:17:40;6.55;;;1.60;;
62030;SDS011;62035;52.094;5.112;2023-03-13T11:20:13;9.65;;;2.25;;
62030;SDS011;62035;52.094;5.112;2023-03-13T11:22:52;6.40;;;1.70;;
62030;SDS011;62035;52.094;5.112;2023-03-13T11:25:36;5.10;;;1.75;;
62030;SDS011;62035;52.094;5.112;2023-03-13T11:28:24;11.57;;;2.42;;
62030;SDS011;62035;52.094;5.112;2023-03-13T11:31:11;11.05;;;1.70;;
62030;SDS011;62035;52.094;5.112;2023-03-13T11:33:46;6.22;;;1.45;;
62030;SDS011;62035;52.094;5.112;2023-03-13T11:36:22;8.07;;;2.00;;
62030;SDS011;62035;52.094;5.112;2023-03-13T11:39:01;9.57;;;2.10;;
62030;SDS011;62035;52.094;5.112;2023-03-13T11:42:01;7.45;;;1.45;;
62030;SDS011;62035;52.094;5.112;2023-03-13T11:44:45;9.43;;;1.65;;
62030;SDS011;62035;52.094;5.112;2023-03-13T11:47:40;7.30;;;1.55;;
62030;SDS011;62035;52.094;5.112;2023-03-13T11:50:25;6.45;;;1.45;;
62030;SDS011;62035;52.094;5.112;2023-03-13T11:53:15;6.03;;;1.73;;
62030;SDS011;62035;52.094;5.112;2023-03-13T11:56:07;7.38;;;1.38;;
62030;SDS011;62035;52.094;5.112;2023-03-13T11:58:49;9.30;;;1.60;;
62030;SDS011;62035;52.094;5.112;2023-03-13T12:01:34;11.13;;;2.10;;
62030;SDS011;62035;52.094;5.112;2023-03-13T12:04:10;7.85;;;1.70;;
62030;SDS011;62035;52.094;5.112;2023-03-13T12:06:48;6.60;;;1.92;;
62030;SDS011;62035;52.094;5.112;2023-03-13T12:09:22;9.02;;;1.85;;
62030;SDS011;62035;52.094;5.112;2023-03-13T12:11:56;13.50;;;2.28;;
62030;SDS011;62035;52.094;5.112;2023-03-13T12:14:30;6.72;;;1.80;;
62030;SDS011;62035;52.094;5.112;2023-03-13T12:17:05;11.07;;;2.17;;
62030;SDS011;62035;52.094;5.112;2023-03-13T12:19:42;10.05;;;2.05;;
62030;SDS011;62035;52.094;5.112;2023-03-13T12:22:17;7.90;;;2.17;;
62030;SDS011;62035;52.094;5.112;2023-03-13T12:24:54;7.47;;;1.52;;
62030;SDS011;62035;52.094;5.112;2023-03-13T12:27:32;5.50;;;1.45;;
62030;SDS011;62035;52.094;5.112;2023-03-13T12:30:10;9.05;;;2.05;;
62030;SDS011;62035;52.094;5.112;2023-03-13T12:32:55;8.80;;;1.83;;
62030;SDS011;62035;52.094;5.112;2023-03-13T12:35:33;11.15;;;2.45;;
62030;SDS011;62035;52.094;5.112;2023-03-13T12:38:04;12.23;;;2.08;;
62030;SDS011;62035;52.094;5.112;2023-03-13T12:40:43;12.57;;;3.45;;
62030;SDS011;62035;52.094;5.112;2023-03-13T12:43:19;15.77;;;2.30;;
62030;SDS011;62035;52.094;5.112;2023-03-13T12:46:02;12.95;;;2.47;;
62030;SDS011;62035;52.094;5.112;2023-03-13T12:49:11;9.07;;;2.30;;
62030;SDS011;62035;52.094;5.112;2023-03-13T12:52:22;9.55;;;2.00;;
62030;SDS011;62035;52.094;5.112;2023-03-13T12:55:28;11.57;;;2.47;;
62030;SDS011;62035;52.094;5.112;2023-03-13T12:58:10;13.10;;;2.97;;
62030;SDS011;62035;52.094;5.112;2023-03-13T13:00:50;10.63;;;2.60;;
62030;SDS011;62035;52.094;5.112;2023-03-13T13:03:24;22.70;;;3.25;;
62030;SDS011;62035;52.094;5.112;2023-03-13T13:06:02;11.60;;;2.33;;
62030;SDS011;62035;52.094;5.112;2023-03-13T13:08:39;11.55;;;2.60;;
62030;SDS011;62035;52.094;5.112;2023-03-13T13:17:38;12.90;;;2.80;;
62030;SDS011;62035;52.094;5.112;2023-03-13T13:20:27;10.07;;;2.50;;
62030;SDS011;62035;52.094;5.112;2023-03-13T13:35:22;17.15;;;2.58;;
62030;SDS011;62035;52.094;5.112;2023-03-13T13:41:02;12.48;;;2.88;;
62030;SDS011;62035;52.094;5.112;2023-03-13T13:46:56;14.45;;;2.83;;
62030;SDS011;62035;52.094;5.112;2023-03-13T13:49:37;13.52;;;2.60;;
62030;SDS011;62035;52.094;5.112;2023-03-13T13:58:10;17.15;;;3.10;;
62030;SDS011;62035;52.094;5.112;2023-03-13T14:00:45;16.45;;;2.83;;
62030;SDS011;62035;52.094;5.112;2023-03-13T14:03:21;12.00;;;2.38;;
62030;SDS011;62035;52.094;5.112;2023-03-13T14:05:52;18.95;;;3.65;;
62030;SDS011;62035;52.094;5.112;2023-03-13T14:08:26;17.77;;;3.70;;
62030;SDS011;62035;52.094;5.112;2023-03-13T14:11:04;18.20;;;3.72;;
62030;SDS011;62035;52.094;5.112;2023-03-13T14:14:07;17.48;;;3.20;;
62030;SDS011;62035;52.094;5.112;2023-03-13T14:16:39;14.70;;;3.13;;
62030;SDS011;62035;52.094;5.112;2023-03-13T14:19:25;17.35;;;3.63;;
62030;SDS011;62035;52.094;5.112;2023-03-13T14:21:59;18.38;;;3.45;;
62030;SDS011;62035;52.094;5.112;2023-03-13T14:24:28;17.80;;;3.63;;
62030;SDS011;62035;52.094;5.112;2023-03-13T14:26:56;11.70;;;3.35;;
62030;SDS011;62035;52.094;5.112;2023-03-13T14:29:24;22.65;;;3.88;;
62030;SDS011;62035;52.094;5.112;2023-03-13T14:31:54;20.05;;;3.83;;
62030;SDS011;62035;52.094;5.112;2023-03-13T14:34:24;14.82;;;3.50;;
62030;SDS011;62035;52.094;5.112;2023-03-13T14:36:54;20.65;;;3.42;;
62030;SDS011;62035;52.094;5.112;2023-03-13T14:39:34;17.30;;;3.33;;
62030;SDS011;62035;52.094;5.112;2023-03-13T14:42:04;19.88;;;3.53;;
62030;SDS011;62035;52.094;5.112;2023-03-13T14:44:37;20.83;;;3.97;;
62030;SDS011;62035;52.094;5.112;2023-03-13T14:47:15;19.98;;;3.70;;
62030;SDS011;62035;52.094;5.112;2023-03-13T14:49:54;22.02;;;3.75;;
62030;SDS011;62035;52.094;5.112;2023-03-13T14:52:25;20.00;;;3.80;;
62030;SDS011;62035;52.094;5.112;2023-03-13T14:54:56;20.50;;;4.45;;
62030;SDS011;62035;52.094;5.112;2023-03-13T14:57:29;17.10;;;3.30;;
62030;SDS011;62035;52.094;5.112;2023-03-13T15:03:15;19.95;;;3.30;;
62030;SDS011;62035;52.094;5.112;2023-03-13T15:06:03;18.13;;;3.50;;
62030;SDS011;62035;52.094;5.112;2023-03-13T15:08:44;26.95;;;4.57;;
62030;SDS011;62035;52.094;5.112;2023-03-13T15:11:18;21.30;;;4.00;;
62030;SDS011;62035;52.094;5.112;2023-03-13T15:13:52;19.33;;;3.50;;
62030;SDS011;62035;52.094;5.112;2023-03-13T15:16:25;15.27;;;3.45;;
62030;SDS011;62035;52.094;5.112;2023-03-13T15:18:55;19.38;;;3.60;;
62030;SDS011;62035;52.094;5.112;2023-03-13T15:21:24;13.75;;;3.10;;
62030;SDS011;62035;52.094;5.112;2023-03-13T15:23:57;20.95;;;4.18;;
62030;SDS011;62035;52.094;5.112;2023-03-13T15:26:28;14.57;;;2.75;;
62030;SDS011;62035;52.094;5.112;2023-03-13T15:28:56;13.05;;;3.13;;
62030;SDS011;62035;52.094;5.112;2023-03-13T15:31:24;19.95;;;3.25;;
62030;SDS011;62035;52.094;5.112;2023-03-13T15:33:56;18.63;;;3.17;;
62030;SDS011;62035;52.094;5.112;2023-03-13T15:38:56;22.17;;;3.50;;
62030;SDS011;62035;52.094;5.112;2023-03-13T15:41:23;18.17;;;3.05;;
62030;SDS011;62035;52.094;5.112;2023-03-13T15:43:51;17.92;;;3.30;;
62030;SDS011;62035;52.094;5.112;2023-03-13T15:46:21;19.05;;;2.92;;
62030;SDS011;62035;52.094;5.112;2023-03-13T15:48:51;13.98;;;3.47;;
62030;SDS011;62035;52.094;5.112;2023-03-13T15:51:22;18.38;;;3.17;;